Time;durP1;ratioP1;P1;durP2;ratioP2;P2;SDS_P1;SDS_P2;PMS_P1;PMS_P2;Temp;Humidity;BMP_temperature;BMP_pressure;BME280_temperature;BME280_humidity;BME280_pressure;Samples;Min_cycle;Max_cycle;Signal;HPM_P1;HPM_P2
2023/07/09 00:01:47;;;;;;;13.30;9.15;;;;;;;;;;5001727;28;20042;-80
2023/07/09 00:04:13;;;;;;;15.00;9.38;;;;;;;;;;5000983;28;20048;-83
2023/07/09 00:06:42;;;;;;;15.48;8.45;;;;;;;;;;5003903;28;20691;-82
2023/07/09 00:09:16;;;;;;;11.35;8.48;;;;;;;;;;5003519;28;20103;-81
2023/07/09 00:11:42;;;;;;;10.63;8.63;;;;;;;;;;4998578;28;20041;-80
2023/07/09 00:14:09;;;;;;;13.35;8.68;;;;;;;;;;5003415;28;20038;-84
2023/07/09 00:16:36;;;;;;;13.57;9.43;;;;;;;;;;4986006;28;20049;-82
2023/07/09 00:19:02;;;;;;;12.63;9.23;;;;;;;;;;5005031;28;20496;-84
2023/07/09 00:21:34;;;;;;;12.65;9.68;;;;;;;;;;5018812;28;20037;-74
2023/07/09 00:24:04;;;;;;;14.88;10.23;;;;;;;;;;5003584;28;20502;-84
2023/07/09 00:26:32;;;;;;;13.50;10.25;;;;;;;;;;4985199;28;20065;-83
2023/07/09 00:28:58;;;;;;;15.37;10.20;;;;;;;;;;5002916;28;20496;-83
2023/07/09 00:31:25;;;;;;;13.45;9.98;;;;;;;;;;4997867;28;20391;-82
2023/07/09 00:33:52;;;;;;;15.13;9.57;;;;;;;;;;5019453;28;20041;-83
2023/07/09 00:36:26;;;;;;;12.05;8.98;;;;;;;;;;5002075;28;20055;-74
2023/07/09 00:38:52;;;;;;;14.52;8.98;;;;;;;;;;5002764;28;20037;-83
2023/07/09 00:41:19;;;;;;;13.73;9.50;;;;;;;;;;5002326;28;20045;-84
2023/07/09 00:43:46;;;;;;;12.95;9.85;;;;;;;;;;4985515;28;20083;-83
2023/07/09 00:46:27;;;;;;;13.10;9.27;;;;;;;;;;5001579;28;20077;-83
2023/07/09 00:49:01;;;;;;;12.07;9.73;;;;;;;;;;5004441;28;20137;-84
2023/07/09 00:51:27;;;;;;;18.17;10.13;;;;;;;;;;5001566;28;20057;-84
2023/07/09 00:53:58;;;;;;;11.38;9.93;;;;;;;;;;5020956;28;20057;-80
2023/07/09 00:56:30;;;;;;;13.52;10.25;;;;;;;;;;4995596;28;20058;-80
2023/07/09 00:59:00;;;;;;;15.52;10.90;;;;;;;;;;4998202;28;20528;-83
2023/07/09 01:01:27;;;;;;;14.73;11.40;;;;;;;;;;5018616;28;20124;-77
2023/07/09 01:03:57;;;;;;;15.82;10.65;;;;;;;;;;5000936;28;20113;-80
2023/07/09 01:06:32;;;;;;;14.15;10.88;;;;;;;;;;5001440;28;20057;-83
2023/07/09 01:08:58;;;;;;;12.88;11.07;;;;;;;;;;5020414;28;20053;-81
2023/07/09 01:11:24;;;;;;;18.33;10.98;;;;;;;;;;4994241;28;20412;-84
2023/07/09 01:13:53;;;;;;;14.23;10.93;;;;;;;;;;5000654;28;20041;-84
2023/07/09 01:16:23;;;;;;;13.70;10.55;;;;;;;;;;5019114;28;20045;-81
2023/07/09 01:18:49;;;;;;;12.45;10.38;;;;;;;;;;4991393;28;20124;-84
2023/07/09 01:21:15;;;;;;;15.23;10.93;;;;;;;;;;5016477;28;20111;-74
2023/07/09 01:23:44;;;;;;;15.77;10.38;;;;;;;;;;5002423;28;20529;-76
2023/07/09 01:26:18;;;;;;;15.52;10.20;;;;;;;;;;5001092;28;20405;-82
2023/07/09 01:28:44;;;;;;;14.02;9.98;;;;;;;;;;5002619;28;20460;-84
2023/07/09 01:31:14;;;;;;;12.40;10.55;;;;;;;;;;5000604;28;20626;-79
2023/07/09 01:33:41;;;;;;;12.77;9.95;;;;;;;;;;5002336;28;20143;-84
2023/07/09 01:36:07;;;;;;;14.93;11.25;;;;;;;;;;4987204;28;20140;-84
2023/07/09 01:38:34;;;;;;;14.40;11.60;;;;;;;;;;5001992;28;20480;-83
2023/07/09 01:41:00;;;;;;;16.73;11.68;;;;;;;;;;4998372;28;20450;-82
2023/07/09 01:43:29;;;;;;;19.30;11.50;;;;;;;;;;5001740;28;20073;-81
2023/07/09 01:45:57;;;;;;;15.20;11.20;;;;;;;;;;4985132;28;20046;-79
2023/07/09 01:48:26;;;;;;;17.67;12.65;;;;;;;;;;5000990;28;20085;-83
2023/07/09 01:50:53;;;;;;;16.17;12.77;;;;;;;;;;5021301;28;20120;-82
2023/07/09 01:53:23;;;;;;;15.15;12.35;;;;;;;;;;5018439;28;20041;-84
2023/07/09 01:55:49;;;;;;;14.20;11.50;;;;;;;;;;4992770;28;20083;-85
2023/07/09 01:58:16;;;;;;;14.18;12.02;;;;;;;;;;4998052;28;20152;-79
2023/07/09 02:00:42;;;;;;;20.52;11.82;;;;;;;;;;4988550;28;20080;-84
2023/07/09 02:03:08;;;;;;;18.05;11.45;;;;;;;;;;5000837;28;20511;-82
2023/07/09 02:05:36;;;;;;;15.93;11.30;;;;;;;;;;5006277;28;20841;-85
2023/07/09 02:08:02;;;;;;;14.07;11.30;;;;;;;;;;5006148;28;20473;-80
2023/07/09 02:10:28;;;;;;;21.48;12.07;;;;;;;;;;5006357;28;20342;-78
2023/07/09 02:12:54;;;;;;;18.88;12.10;;;;;;;;;;5023441;28;20037;-80
2023/07/09 02:15:20;;;;;;;14.60;12.05;;;;;;;;;;5004962;28;20045;-82
2023/07/09 02:17:46;;;;;;;21.13;13.20;;;;;;;;;;5021732;28;20096;-85
2023/07/09 02:20:13;;;;;;;17.35;13.50;;;;;;;;;;5006450;28;20041;-75
2023/07/09 02:22:40;;;;;;;17.08;12.98;;;;;;;;;;5004272;28;20128;-81
2023/07/09 02:25:07;;;;;;;17.75;12.10;;;;;;;;;;5002973;28;20062;-74
2023/07/09 02:27:33;;;;;;;15.95;11.88;;;;;;;;;;5001691;28;20970;-79
2023/07/09 02:30:00;;;;;;;15.98;11.10;;;;;;;;;;5002531;28;20089;-71
2023/07/09 02:32:27;;;;;;;16.10;11.98;;;;;;;;;;5003025;28;20073;-73
2023/07/09 02:34:54;;;;;;;13.77;11.43;;;;;;;;;;4983801;28;20065;-71
2023/07/09 02:37:25;;;;;;;15.57;12.02;;;;;;;;;;5002390;28;20041;-84
2023/07/09 02:39:51;;;;;;;13.35;11.77;;;;;;;;;;5002033;28;20086;-84
2023/07/09 02:42:19;;;;;;;14.18;12.50;;;;;;;;;;5004225;28;20048;-71
2023/07/09 02:44:46;;;;;;;15.50;12.70;;;;;;;;;;4998745;28;20038;-84
2023/07/09 02:47:13;;;;;;;22.23;14.00;;;;;;;;;;5001632;28;20042;-71
2023/07/09 02:49:39;;;;;;;22.38;15.32;;;;;;;;;;5000544;28;20033;-83
2023/07/09 02:52:05;;;;;;;21.80;14.65;;;;;;;;;;4999904;28;20104;-85
2023/07/09 02:54:32;;;;;;;17.90;14.70;;;;;;;;;;5000305;28;20042;-76
2023/07/09 02:56:58;;;;;;;20.00;13.93;;;;;;;;;;4998126;28;20180;-74
2023/07/09 02:59:26;;;;;;;18.48;13.63;;;;;;;;;;5001430;28;20120;-84
2023/07/09 03:01:52;;;;;;;;;;;;;;;;;;5000359;28;20077;-85
2023/07/09 03:04:20;;;;;;;13.35;10.73;;;;;;;;;;5000028;28;20064;-81
2023/07/09 03:06:46;;;;;;;13.52;11.15;;;;;;;;;;4999299;28;20080;-82
2023/07/09 03:09:12;;;;;;;13.52;9.80;;;;;;;;;;4996224;28;20030;-79
2023/07/09 03:11:38;;;;;;;15.13;9.90;;;;;;;;;;5002418;28;20050;-83
2023/07/09 03:14:04;;;;;;;10.85;9.63;;;;;;;;;;4983989;28;20054;-84
2023/07/09 03:16:31;;;;;;;13.15;9.45;;;;;;;;;;5001644;28;20054;-85
2023/07/09 03:18:58;;;;;;;17.70;9.70;;;;;;;;;;4999663;28;20498;-80
2023/07/09 03:21:25;;;;;;;11.95;9.65;;;;;;;;;;5002171;28;20502;-79
2023/07/09 03:23:51;;;;;;;12.10;9.15;;;;;;;;;;5005869;28;20521;-81
2023/07/09 03:26:17;;;;;;;12.90;9.40;;;;;;;;;;5004148;28;20061;-78
2023/07/09 03:28:43;;;;;;;14.02;9.85;;;;;;;;;;4987917;28;20087;-77
2023/07/09 03:31:10;;;;;;;12.98;10.50;;;;;;;;;;4997793;28;20114;-84
2023/07/09 03:33:36;;;;;;;18.25;10.85;;;;;;;;;;5016285;28;20036;-83
2023/07/09 03:36:04;;;;;;;13.90;11.27;;;;;;;;;;5021795;28;20041;-83
2023/07/09 03:38:30;;;;;;;13.25;10.63;;;;;;;;;;5003395;28;20465;-74
2023/07/09 03:40:56;;;;;;;13.65;10.48;;;;;;;;;;5000062;28;20519;-72
2023/07/09 03:43:23;;;;;;;14.15;10.43;;;;;;;;;;4994025;28;20524;-82
2023/07/09 03:45:50;;;;;;;12.50;9.50;;;;;;;;;;5003966;28;20143;-76
2023/07/09 03:48:16;;;;;;;13.30;10.10;;;;;;;;;;5001511;28;20049;-79
2023/07/09 03:50:44;;;;;;;15.68;9.82;;;;;;;;;;5005416;28;20168;-84
2023/07/09 03:53:10;;;;;;;13.35;10.32;;;;;;;;;;4984064;28;20042;-84
2023/07/09 03:55:37;;;;;;;12.65;10.90;;;;;;;;;;5004413;28;20068;-85
2023/07/09 03:58:03;;;;;;;12.57;10.93;;;;;;;;;;5000017;28;20057;-72
2023/07/09 04:00:30;;;;;;;18.45;10.80;;;;;;;;;;5003107;28;20044;-85
2023/07/09 04:02:56;;;;;;;14.82;10.30;;;;;;;;;;5002779;28;20054;-82
2023/07/09 04:05:23;;;;;;;12.45;10.73;;;;;;;;;;5020271;28;20073;-84
2023/07/09 04:07:48;;;;;;;15.40;10.32;;;;;;;;;;5020660;28;20057;-84
2023/07/09 04:10:15;;;;;;;11.25;9.52;;;;;;;;;;5001156;28;20041;-85
2023/07/09 04:12:41;;;;;;;15.85;10.35;;;;;;;;;;5013960;28;20033;-85
2023/07/09 04:15:08;;;;;;;12.70;10.45;;;;;;;;;;5017161;28;20084;-82
2023/07/09 04:17:34;;;;;;;13.27;10.07;;;;;;;;;;5003958;28;20056;-77
2023/07/09 04:20:00;;;;;;;12.07;10.10;;;;;;;;;;4984618;28;20049;-83
2023/07/09 04:22:26;;;;;;;13.30;9.23;;;;;;;;;;5003231;28;20069;-84
2023/07/09 04:24:52;;;;;;;10.80;9.30;;;;;;;;;;5001171;28;20087;-84
2023/07/09 04:27:19;;;;;;;13.13;9.68;;;;;;;;;;5003490;28;20559;-78
2023/07/09 04:29:45;;;;;;;10.82;9.70;;;;;;;;;;5019894;28;20055;-85
2023/07/09 04:32:13;;;;;;;13.32;9.07;;;;;;;;;;5001816;28;20398;-85
2023/07/09 04:34:39;;;;;;;10.75;9.13;;;;;;;;;;5003045;28;20867;-82
2023/07/09 04:37:07;;;;;;;12.63;9.57;;;;;;;;;;5001543;28;20587;-83
2023/07/09 04:39:33;;;;;;;14.30;10.15;;;;;;;;;;5019324;28;20056;-82
2023/07/09 04:41:59;;;;;;;14.95;9.63;;;;;;;;;;4990735;28;20057;-82
2023/07/09 04:44:25;;;;;;;11.13;8.60;;;;;;;;;;5019659;28;20508;-77
2023/07/09 04:46:51;;;;;;;13.25;9.40;;;;;;;;;;5004056;28;20041;-81
2023/07/09 04:49:17;;;;;;;12.80;9.10;;;;;;;;;;5017983;28;20422;-82
2023/07/09 04:51:43;;;;;;;10.75;8.60;;;;;;;;;;5020420;28;20493;-85
2023/07/09 04:54:09;;;;;;;12.00;8.50;;;;;;;;;;5019778;28;20040;-82
2023/07/09 04:56:37;;;;;;;11.57;8.35;;;;;;;;;;5003487;28;20046;-72
2023/07/09 04:59:03;;;;;;;15.77;9.05;;;;;;;;;;5017775;28;20145;-84
2023/07/09 05:01:29;;;;;;;13.75;8.88;;;;;;;;;;5002665;28;20049;-79
2023/07/09 05:03:55;;;;;;;10.13;9.07;;;;;;;;;;5017918;28;20755;-84
2023/07/09 05:06:22;;;;;;;12.00;9.70;;;;;;;;;;5020441;28;20136;-83
2023/07/09 05:08:48;;;;;;;10.82;9.15;;;;;;;;;;5003166;28;20132;-84
2023/07/09 05:11:14;;;;;;;18.23;8.68;;;;;;;;;;5019309;28;20139;-80
2023/07/09 05:13:41;;;;;;;13.70;8.73;;;;;;;;;;5003568;28;20290;-72
2023/07/09 05:16:06;;;;;;;10.90;7.70;;;;;;;;;;5019792;28;20042;-84
2023/07/09 05:18:33;;;;;;;12.38;7.53;;;;;;;;;;5019765;28;20045;-82
2023/07/09 05:20:58;;;;;;;15.68;8.20;;;;;;;;;;5001511;28;20049;-85
2023/07/09 05:23:25;;;;;;;10.05;8.23;;;;;;;;;;5016839;28;20562;-82
2023/07/09 05:26:01;;;;;;;11.02;7.88;;;;;;;;;;4986539;28;20049;-83
2023/07/09 05:28:28;;;;;;;18.33;8.63;;;;;;;;;;4994337;28;20152;-81
2023/07/09 05:30:54;;;;;;;13.48;7.93;;;;;;;;;;5013372;28;20053;-75
2023/07/09 05:33:19;;;;;;;11.80;7.75;;;;;;;;;;5018186;28;20049;-76
2023/07/09 05:35:46;;;;;;;14.02;7.72;;;;;;;;;;5001898;28;20151;-82
2023/07/09 05:38:12;;;;;;;9.27;7.50;;;;;;;;;;5019528;28;20106;-73
2023/07/09 05:40:42;;;;;;;12.85;8.00;;;;;;;;;;5016210;28;20080;-77
2023/07/09 05:43:08;;;;;;;12.50;7.70;;;;;;;;;;5019560;28;20059;-81
2023/07/09 05:45:34;;;;;;;12.07;8.15;;;;;;;;;;5012126;28;21178;-70
2023/07/09 05:48:00;;;;;;;15.25;7.65;;;;;;;;;;5011746;28;20038;-71
2023/07/09 05:50:27;;;;;;;10.00;8.00;;;;;;;;;;5000919;28;20088;-80
2023/07/09 05:52:56;;;;;;;13.02;7.90;;;;;;;;;;5002394;28;20048;-73
2023/07/09 05:55:22;;;;;;;12.07;8.20;;;;;;;;;;5019711;28;20041;-79
2023/07/09 05:57:48;;;;;;;15.25;8.00;;;;;;;;;;5019273;28;20115;-71
2023/07/09 06:00:15;;;;;;;9.13;7.68;;;;;;;;;;5012679;28;20846;-80
2023/07/09 06:02:41;;;;;;;13.90;8.20;;;;;;;;;;5016716;28;20095;-79
2023/07/09 06:05:10;;;;;;;10.85;8.45;;;;;;;;;;4999786;28;20180;-80
2023/07/09 06:07:37;;;;;;;10.32;7.60;;;;;;;;;;5016615;28;20548;-84
2023/07/09 06:10:03;;;;;;;11.07;8.20;;;;;;;;;;5018806;28;20420;-78
2023/07/09 06:12:29;;;;;;;13.18;8.43;;;;;;;;;;5020748;28;20037;-83
2023/07/09 06:14:55;;;;;;;12.13;8.70;;;;;;;;;;4999769;28;20980;-78
2023/07/09 06:17:21;;;;;;;10.90;8.05;;;;;;;;;;4997186;28;20041;-75
2023/07/09 06:19:47;;;;;;;10.00;7.88;;;;;;;;;;5020299;28;20397;-74
2023/07/09 06:22:13;;;;;;;10.90;8.15;;;;;;;;;;5018256;28;21132;-74
2023/07/09 06:24:39;;;;;;;10.75;7.72;;;;;;;;;;4996520;28;20042;-76
2023/07/09 06:27:05;;;;;;;12.43;7.97;;;;;;;;;;4998594;28;20095;-83
2023/07/09 06:29:31;;;;;;;11.45;8.30;;;;;;;;;;5000196;28;20052;-86
2023/07/09 06:32:01;;;;;;;12.90;8.55;;;;;;;;;;4996488;28;20043;-70
2023/07/09 06:34:27;;;;;;;13.07;7.88;;;;;;;;;;4992175;28;20049;-76
2023/07/09 06:36:54;;;;;;;10.05;8.00;;;;;;;;;;4998718;28;20543;-79
2023/07/09 06:39:20;;;;;;;12.82;8.80;;;;;;;;;;5018661;28;20049;-73
2023/07/09 06:41:46;;;;;;;16.95;8.23;;;;;;;;;;5000401;28;20577;-81
2023/07/09 06:44:12;;;;;;;16.55;9.13;;;;;;;;;;5001699;28;20037;-75
2023/07/09 06:46:38;;;;;;;12.55;8.60;;;;;;;;;;4997775;28;20049;-81
2023/07/09 06:49:06;;;;;;;13.40;9.23;;;;;;;;;;4995499;28;20125;-85
2023/07/09 06:51:32;;;;;;;15.13;9.48;;;;;;;;;;5001065;28;20136;-81
2023/07/09 06:53:59;;;;;;;15.13;9.32;;;;;;;;;;4999846;28;20220;-71
2023/07/09 06:56:25;;;;;;;13.68;9.50;;;;;;;;;;4996572;28;20040;-80
2023/07/09 06:58:51;;;;;;;15.45;9.00;;;;;;;;;;4981266;28;20041;-81
2023/07/09 07:01:17;;;;;;;11.90;8.70;;;;;;;;;;4996806;28;20099;-79
2023/07/09 07:03:43;;;;;;;12.65;8.48;;;;;;;;;;4988049;28;20088;-84
2023/07/09 07:06:09;;;;;;;14.65;9.20;;;;;;;;;;5017480;28;20057;-83
2023/07/09 07:08:35;;;;;;;16.42;9.40;;;;;;;;;;5001379;28;20041;-82
2023/07/09 07:11:03;;;;;;;12.68;8.48;;;;;;;;;;5001874;28;20128;-77
2023/07/09 07:13:34;;;;;;;14.13;9.52;;;;;;;;;;4998274;28;20041;-84
2023/07/09 07:16:01;;;;;;;14.68;9.27;;;;;;;;;;4983844;28;20052;-72
2023/07/09 07:18:27;;;;;;;11.35;8.73;;;;;;;;;;4997987;28;20088;-76
2023/07/09 07:20:53;;;;;;;11.63;8.52;;;;;;;;;;5017796;28;20063;-82
2023/07/09 07:23:20;;;;;;;11.15;8.60;;;;;;;;;;4998717;28;20049;-79
2023/07/09 07:25:46;;;;;;;13.07;8.90;;;;;;;;;;4998570;28;20053;-73
2023/07/09 07:28:12;;;;;;;13.52;8.73;;;;;;;;;;4985348;28;20104;-79
2023/07/09 07:30:38;;;;;;;12.27;8.10;;;;;;;;;;4998258;28;20049;-81
2023/07/09 07:33:04;;;;;;;15.20;8.27;;;;;;;;;;4996276;28;20508;-85
2023/07/09 07:35:31;;;;;;;11.60;8.20;;;;;;;;;;5000341;28;20160;-86
2023/07/09 07:37:56;;;;;;;9.98;7.90;;;;;;;;;;5000191;28;20500;-84
2023/07/09 07:40:23;;;;;;;12.15;7.43;;;;;;;;;;5017591;28;20042;-83
2023/07/09 07:42:49;;;;;;;13.60;7.70;;;;;;;;;;5012613;28;20128;-83
2023/07/09 07:45:15;;;;;;;9.98;7.68;;;;;;;;;;4999336;28;20128;-84
2023/07/09 07:47:41;;;;;;;12.75;7.60;;;;;;;;;;4996896;28;20134;-75
2023/07/09 07:50:10;;;;;;;13.85;7.28;;;;;;;;;;4996715;28;20053;-79
2023/07/09 07:52:37;;;;;;;11.45;7.78;;;;;;;;;;5015653;28;20040;-71
2023/07/09 07:55:12;;;;;;;15.07;7.80;;;;;;;;;;4996820;28;20536;-80
2023/07/09 07:57:38;;;;;;;11.32;7.65;;;;;;;;;;4999289;28;20511;-74
2023/07/09 08:00:04;;;;;;;13.93;7.57;;;;;;;;;;4997627;28;20050;-73
2023/07/09 08:02:30;;;;;;;11.38;7.32;;;;;;;;;;4996386;28;20038;-72
2023/07/09 08:04:56;;;;;;;12.05;7.57;;;;;;;;;;4995520;28;20049;-71
2023/07/09 08:07:22;;;;;;;10.30;7.55;;;;;;;;;;5000622;28;20052;-73
2023/07/09 08:09:48;;;;;;;15.05;8.00;;;;;;;;;;4997440;28;20091;-78
2023/07/09 08:12:14;;;;;;;12.60;7.47;;;;;;;;;;5018718;28;20397;-82
2023/07/09 08:14:43;;;;;;;14.05;8.10;;;;;;;;;;5014870;28;20075;-84
2023/07/09 08:17:09;;;;;;;11.55;7.65;;;;;;;;;;4998736;28;20060;-82
2023/07/09 08:20:04;;;;;;;17.48;8.25;;;;;;;;;;4997825;28;20041;-82
2023/07/09 08:22:30;;;;;;;13.15;7.60;;;;;;;;;;4974489;28;20828;-79
2023/07/09 08:24:56;;;;;;;14.43;7.40;;;;;;;;;;4999296;28;20049;-77
2023/07/09 08:27:22;;;;;;;13.70;8.00;;;;;;;;;;5014654;28;20525;-71
2023/07/09 08:29:48;;;;;;;9.88;7.75;;;;;;;;;;5017100;28;20033;-75
2023/07/09 08:32:15;;;;;;;10.50;6.82;;;;;;;;;;5017083;28;20068;-72
2023/07/09 08:34:43;;;;;;;10.13;7.22;;;;;;;;;;5014108;28;20048;-83
2023/07/09 08:37:10;;;;;;;9.52;6.72;;;;;;;;;;4998809;28;20045;-84
2023/07/09 08:39:36;;;;;;;9.65;6.60;;;;;;;;;;4997436;28;20096;-77
2023/07/09 08:42:08;;;;;;;12.63;6.70;;;;;;;;;;5018840;28;20084;-80
2023/07/09 08:44:43;;;;;;;11.35;6.65;;;;;;;;;;4999410;28;20056;-83
2023/07/09 08:47:29;;;;;;;14.13;6.05;;;;;;;;;;4996968;28;21329;-72
2023/07/09 08:49:58;;;;;;;13.37;6.40;;;;;;;;;;4996446;28;20123;-80
2023/07/09 08:52:35;;;;;;;11.50;6.53;;;;;;;;;;4994974;28;20053;-78
2023/07/09 08:55:05;;;;;;;8.23;6.28;;;;;;;;;;5009774;28;20080;-71
2023/07/09 08:57:35;;;;;;;10.27;6.43;;;;;;;;;;5015945;28;20119;-72
2023/07/09 09:00:07;;;;;;;9.95;6.32;;;;;;;;;;4996095;28;20140;-72
2023/07/09 09:02:35;;;;;;;8.68;5.65;;;;;;;;;;5010102;28;20716;-79
2023/07/09 09:05:04;;;;;;;11.52;6.25;;;;;;;;;;4978439;28;20049;-81
2023/07/09 09:07:40;;;;;;;11.52;6.03;;;;;;;;;;4998746;28;20053;-86
2023/07/09 09:10:08;;;;;;;15.48;6.68;;;;;;;;;;4997633;28;20132;-81
2023/07/09 09:12:37;;;;;;;9.05;6.15;;;;;;;;;;4995391;28;20049;-73
2023/07/09 09:15:06;;;;;;;10.82;6.32;;;;;;;;;;4995230;28;20104;-77
2023/07/09 09:17:34;;;;;;;10.55;6.07;;;;;;;;;;5013786;28;20111;-70
2023/07/09 09:20:03;;;;;;;11.65;5.85;;;;;;;;;;5014686;28;20052;-80
2023/07/09 09:22:48;;;;;;;13.00;6.07;;;;;;;;;;4992579;28;20057;-77
2023/07/09 09:25:27;;;;;;;10.60;6.18;;;;;;;;;;4993071;28;20060;-82
2023/07/09 09:27:56;;;;;;;13.82;5.82;;;;;;;;;;4990904;28;20054;-82
2023/07/09 09:30:23;;;;;;;9.77;5.97;;;;;;;;;;4994552;28;20042;-83
2023/07/09 09:32:53;;;;;;;10.82;5.70;;;;;;;;;;4992528;28;20146;-71
2023/07/09 09:35:20;;;;;;;12.43;6.30;;;;;;;;;;4994816;28;20462;-82
2023/07/09 09:37:54;;;;;;;10.50;5.93;;;;;;;;;;4997413;28;20049;-78
2023/07/09 09:40:23;;;;;;;10.00;6.43;;;;;;;;;;4988605;28;20042;-73
2023/07/09 09:42:49;;;;;;;11.40;6.28;;;;;;;;;;4992915;28;20120;-77
2023/07/09 09:45:17;;;;;;;11.65;6.30;;;;;;;;;;4995620;28;20042;-82
2023/07/09 09:47:44;;;;;;;10.18;6.30;;;;;;;;;;4995209;28;20081;-82
2023/07/09 09:50:14;;;;;;;8.25;5.88;;;;;;;;;;4991257;28;20068;-81
2023/07/09 09:52:40;;;;;;;9.10;5.88;;;;;;;;;;4998088;28;20042;-81
2023/07/09 09:55:11;;;;;;;11.38;5.70;;;;;;;;;;4979966;28;20052;-77
2023/07/09 09:57:38;;;;;;;11.57;6.15;;;;;;;;;;4994904;28;20141;-80
2023/07/09 10:00:06;;;;;;;14.60;5.72;;;;;;;;;;4981364;28;20045;-83
2023/07/09 10:02:40;;;;;;;10.95;5.88;;;;;;;;;;4991053;28;20124;-83
2023/07/09 10:05:11;;;;;;;12.80;6.00;;;;;;;;;;4989477;28;20088;-83
2023/07/09 10:07:43;;;;;;;12.45;6.63;;;;;;;;;;4996467;28;20076;-82
2023/07/09 10:10:12;;;;;;;11.38;6.03;;;;;;;;;;4991216;28;20042;-82
2023/07/09 10:12:48;;;;;;;10.07;5.43;;;;;;;;;;4994408;28;20089;-83
2023/07/09 10:15:26;;;;;;;12.00;5.75;;;;;;;;;;4992577;28;20092;-74
2023/07/09 10:17:55;;;;;;;8.77;5.55;;;;;;;;;;4990761;28;20050;-78
2023/07/09 10:20:21;;;;;;;11.13;6.07;;;;;;;;;;4978962;28;20041;-87
2023/07/09 10:22:51;;;;;;;11.85;6.15;;;;;;;;;;4993706;28;20045;-86
2023/07/09 10:25:23;;;;;;;11.27;5.95;;;;;;;;;;5012623;28;20582;-83
2023/07/09 10:28:03;;;;;;;8.00;5.57;;;;;;;;;;5013858;28;20049;-81
2023/07/09 10:30:45;;;;;;;10.30;5.35;;;;;;;;;;5015348;28;20029;-78
2023/07/09 10:33:12;;;;;;;13.73;5.05;;;;;;;;;;5016581;28;20168;-78
2023/07/09 10:35:54;;;;;;;8.48;5.22;;;;;;;;;;4998687;28;20052;-84
2023/07/09 10:38:44;;;;;;;10.55;5.43;;;;;;;;;;5000840;28;20497;-83
2023/07/09 10:41:11;;;;;;;9.63;4.90;;;;;;;;;;4990004;28;20042;-83
2023/07/09 10:43:37;;;;;;;;;;;;;;;;;;5001917;28;20045;-76
2023/07/09 10:46:11;;;;;;;10.13;5.85;;;;;;;;;;4994351;28;19929;-84
2023/07/09 10:48:45;;;;;;;14.38;5.50;;;;;;;;;;5020005;28;20379;-74
2023/07/09 10:51:21;;;;;;;10.90;5.18;;;;;;;;;;5002084;28;20053;-81
2023/07/09 10:53:50;;;;;;;6.72;4.80;;;;;;;;;;5016746;28;20477;-80
2023/07/09 10:56:19;;;;;;;9.75;5.50;;;;;;;;;;4981780;28;20052;-72
2023/07/09 10:59:08;;;;;;;10.60;5.60;;;;;;;;;;4980296;28;20052;-83
2023/07/09 11:01:38;;;;;;;9.63;5.00;;;;;;;;;;5003645;28;20045;-73
2023/07/09 11:04:10;;;;;;;9.77;5.20;;;;;;;;;;4993243;28;20045;-77
2023/07/09 11:06:39;;;;;;;8.85;4.97;;;;;;;;;;4994330;28;20524;-81
2023/07/09 11:09:25;;;;;;;8.38;4.50;;;;;;;;;;5020602;28;20083;-78
2023/07/09 11:11:54;;;;;;;10.02;5.15;;;;;;;;;;4993301;28;20670;-80
2023/07/09 11:14:26;;;;;;;11.15;5.20;;;;;;;;;;4997541;28;20816;-84
2023/07/09 11:16:53;;;;;;;12.90;6.45;;;;;;;;;;4983808;28;20085;-74
2023/07/09 11:19:23;;;;;;;10.52;5.90;;;;;;;;;;4998499;28;20037;-82
2023/07/09 11:22:05;;;;;;;9.50;5.77;;;;;;;;;;5016989;28;20045;-73
2023/07/09 11:24:32;;;;;;;11.45;5.80;;;;;;;;;;4990785;28;20313;-78
2023/07/09 11:27:00;;;;;;;9.30;5.47;;;;;;;;;;4982087;28;20050;-78
2023/07/09 11:29:26;;;;;;;9.10;5.90;;;;;;;;;;4980901;28;20038;-83
2023/07/09 11:31:52;;;;;;;11.30;5.93;;;;;;;;;;4984919;28;20064;-78
2023/07/09 11:34:20;;;;;;;14.05;5.65;;;;;;;;;;4973440;28;20410;-77
2023/07/09 11:37:06;;;;;;;11.82;6.00;;;;;;;;;;4976953;28;20065;-84
2023/07/09 11:39:39;;;;;;;11.77;5.40;;;;;;;;;;4971633;28;20046;-80
2023/07/09 11:42:24;;;;;;;13.07;5.47;;;;;;;;;;4982305;28;20057;-78
2023/07/09 11:44:50;;;;;;;7.57;5.30;;;;;;;;;;4974645;28;20054;-82
2023/07/09 11:47:21;;;;;;;9.02;5.60;;;;;;;;;;4959947;28;20059;-86
2023/07/09 11:49:59;;;;;;;11.65;5.53;;;;;;;;;;4965740;28;21406;-75
2023/07/09 11:52:28;;;;;;;12.32;5.15;;;;;;;;;;4975283;28;20050;-72
2023/07/09 11:54:55;;;;;;;10.82;5.70;;;;;;;;;;4976360;28;20050;-81
2023/07/09 11:57:21;;;;;;;9.63;5.80;;;;;;;;;;4978703;28;20149;-81
2023/07/09 11:59:48;;;;;;;14.13;5.53;;;;;;;;;;4974919;28;20783;-74
2023/07/09 12:02:21;;;;;;;10.23;5.90;;;;;;;;;;4980433;28;20054;-78
2023/07/09 12:04:51;;;;;;;7.43;5.28;;;;;;;;;;4978226;28;20086;-78
2023/07/09 12:07:18;;;;;;;9.25;5.53;;;;;;;;;;4969815;28;20039;-80
2023/07/09 12:09:50;;;;;;;9.00;5.63;;;;;;;;;;4963527;28;20084;-75
2023/07/09 12:12:24;;;;;;;9.57;5.50;;;;;;;;;;4979066;28;20109;-71
2023/07/09 12:15:00;;;;;;;16.80;5.70;;;;;;;;;;4976345;28;20054;-78
2023/07/09 12:17:30;;;;;;;11.05;5.28;;;;;;;;;;4967769;28;20148;-77
2023/07/09 12:19:58;;;;;;;9.70;5.47;;;;;;;;;;4963108;28;20510;-76
2023/07/09 12:22:24;;;;;;;9.20;5.47;;;;;;;;;;4976697;28;20065;-72
2023/07/09 12:24:53;;;;;;;12.20;6.00;;;;;;;;;;4993322;28;20073;-83
2023/07/09 12:27:24;;;;;;;10.77;5.63;;;;;;;;;;4996434;28;20665;-73
2023/07/09 12:29:52;;;;;;;8.27;5.90;;;;;;;;;;4990732;28;20052;-83
2023/07/09 12:32:18;;;;;;;7.47;5.25;;;;;;;;;;4997471;28;20132;-78
2023/07/09 12:34:49;;;;;;;10.15;5.00;;;;;;;;;;4994980;28;20045;-80
2023/07/09 12:37:20;;;;;;;10.98;4.97;;;;;;;;;;4996250;28;20400;-82
2023/07/09 12:39:47;;;;;;;6.57;5.40;;;;;;;;;;4973987;28;20065;-72
2023/07/09 12:42:18;;;;;;;8.85;5.50;;;;;;;;;;4992057;28;20042;-78
2023/07/09 12:44:46;;;;;;;7.82;5.20;;;;;;;;;;4995056;28;20045;-78
2023/07/09 12:47:15;;;;;;;10.43;5.10;;;;;;;;;;4992903;28;20042;-77
2023/07/09 12:49:43;;;;;;;9.27;4.93;;;;;;;;;;4996664;28;20101;-73
2023/07/09 12:52:20;;;;;;;7.22;4.55;;;;;;;;;;4995329;28;20065;-86
2023/07/09 12:55:00;;;;;;;9.90;4.82;;;;;;;;;;4995311;28;20064;-84
2023/07/09 12:57:27;;;;;;;8.05;4.43;;;;;;;;;;5002503;28;20049;-81
2023/07/09 12:59:53;;;;;;;;;;;;;;;;;;4999125;28;20160;-82
2023/07/09 13:02:25;;;;;;;6.72;4.60;;;;;;;;;;4996984;28;20112;-79
2023/07/09 13:04:58;;;;;;;7.63;4.57;;;;;;;;;;5015128;28;20133;-82
2023/07/09 13:07:24;;;;;;;9.82;6.03;;;;;;;;;;4996267;28;20049;-86
2023/07/09 13:09:51;;;;;;;7.72;5.07;;;;;;;;;;4994751;28;20544;-77
2023/07/09 13:12:21;;;;;;;8.85;4.72;;;;;;;;;;4993676;28;20042;-83
2023/07/09 13:14:53;;;;;;;6.38;4.80;;;;;;;;;;4999087;28;20075;-87
2023/07/09 13:17:19;;;;;;;8.77;4.47;;;;;;;;;;5010456;28;20644;-79
2023/07/09 13:19:46;;;;;;;6.40;4.35;;;;;;;;;;4994600;28;20547;-87
2023/07/09 13:22:16;;;;;;;8.53;4.67;;;;;;;;;;5001622;28;20102;-86
2023/07/09 13:24:42;;;;;;;9.85;4.45;;;;;;;;;;4984712;28;20081;-83
2023/07/09 13:27:15;;;;;;;6.57;4.50;;;;;;;;;;4999735;28;20485;-84
2023/07/09 13:29:42;;;;;;;7.60;4.05;;;;;;;;;;5007035;28;20432;-87
2023/07/09 13:32:11;;;;;;;10.93;4.40;;;;;;;;;;5002477;28;20666;-88
2023/07/09 13:34:39;;;;;;;10.60;4.60;;;;;;;;;;4994899;28;20229;-87
2023/07/09 13:37:04;;;;;;;;;;;;;;;;;;4997501;28;20076;-86
2023/07/09 13:39:31;;;;;;;6.88;3.92;;;;;;;;;;5004190;28;19929;-86
2023/07/09 13:41:57;;;;;;;7.93;4.30;;;;;;;;;;4999549;28;20513;-85
2023/07/09 13:44:27;;;;;;;9.52;4.40;;;;;;;;;;4996905;28;20558;-80
2023/07/09 13:46:54;;;;;;;10.32;4.95;;;;;;;;;;4993862;28;20054;-82
2023/07/09 13:49:21;;;;;;;5.97;4.23;;;;;;;;;;4980470;28;20040;-85
2023/07/09 13:51:48;;;;;;;10.70;4.50;;;;;;;;;;5014619;28;20136;-83
2023/07/09 13:54:37;;;;;;;9.45;4.50;;;;;;;;;;4999481;28;20129;-82
2023/07/09 13:57:04;;;;;;;7.60;4.28;;;;;;;;;;4993833;28;20049;-81
2023/07/09 13:59:30;;;;;;;12.70;4.65;;;;;;;;;;5010234;28;20543;-77
2023/07/09 14:01:57;;;;;;;12.35;4.25;;;;;;;;;;5001016;28;20042;-80
2023/07/09 14:04:24;;;;;;;6.63;4.47;;;;;;;;;;4999436;28;20060;-77
2023/07/09 14:06:53;;;;;;;7.77;4.40;;;;;;;;;;4999989;28;20045;-81
2023/07/09 14:09:21;;;;;;;9.48;4.20;;;;;;;;;;4993781;28;20328;-82
2023/07/09 14:11:51;;;;;;;7.70;4.68;;;;;;;;;;5000466;28;20061;-84
2023/07/09 14:14:22;;;;;;;8.60;4.57;;;;;;;;;;5002773;28;20056;-81
2023/07/09 14:16:49;;;;;;;6.93;4.60;;;;;;;;;;5010390;28;20057;-81
2023/07/09 14:19:16;;;;;;;7.85;4.25;;;;;;;;;;4984497;28;20053;-84
2023/07/09 14:21:43;;;;;;;8.13;3.95;;;;;;;;;;5001380;28;20053;-83
2023/07/09 14:24:17;;;;;;;9.57;4.22;;;;;;;;;;4996534;28;20607;-83
2023/07/09 14:26:43;;;;;;;11.85;4.13;;;;;;;;;;4994135;28;20060;-82
2023/07/09 14:29:12;;;;;;;6.90;4.20;;;;;;;;;;4981718;28;20559;-79
2023/07/09 14:31:41;;;;;;;8.45;4.13;;;;;;;;;;4994973;28;20041;-84
2023/07/09 14:34:21;;;;;;;11.13;4.28;;;;;;;;;;4998414;28;20146;-77
2023/07/09 14:36:48;;;;;;;10.65;4.38;;;;;;;;;;4997028;28;20132;-85
2023/07/09 14:39:14;;;;;;;11.57;4.40;;;;;;;;;;4982541;28;20063;-82